createdAt,value
2023-02-22T00:02:13.308Z,8.38
2023-02-22T00:04:46.463Z,8.27
2023-02-22T00:07:21.414Z,7.91
2023-02-22T00:09:56.891Z,7.97
2023-02-22T00:12:31.146Z,8.02
2023-02-22T00:15:05.778Z,7.77
2023-02-22T00:17:38.988Z,7.72
2023-02-22T00:20:15.263Z,7.88
2023-02-22T00:22:51.650Z,7.84
2023-02-22T00:25:26.367Z,7.83
2023-02-22T00:28:00.763Z,7.85
2023-02-22T00:30:34.855Z,7.63
2023-02-22T00:33:09.461Z,7.82
2023-02-22T00:35:45.840Z,7.46
2023-02-22T00:38:20.483Z,7.38
2023-02-22T00:40:55.705Z,7.39
2023-02-22T00:43:30.189Z,7.29
2023-02-22T00:46:03.904Z,7.32
2023-02-22T00:48:37.160Z,7.49
2023-02-22T00:51:10.316Z,7.32
2023-02-22T00:53:43.712Z,7.29
2023-02-22T00:56:18.388Z,7.43
2023-02-22T00:58:52.054Z,7.20
2023-02-22T01:01:25.389Z,7.38
2023-02-22T01:03:59.215Z,7.35
2023-02-22T01:06:32.509Z,7.42
2023-02-22T01:09:07.800Z,7.24
2023-02-22T01:11:42.699Z,7.09
2023-02-22T01:14:18.269Z,6.99
2023-02-22T01:16:52.236Z,6.99
2023-02-22T01:19:25.561Z,6.74
2023-02-22T01:21:58.921Z,6.69
2023-02-22T01:24:32.418Z,6.55
2023-02-22T01:27:07.152Z,6.33
2023-02-22T01:29:41.422Z,6.28
2023-02-22T01:32:15.741Z,5.97
2023-02-22T01:34:48.676Z,6.19
2023-02-22T01:37:21.844Z,6.08
2023-02-22T01:39:55.035Z,5.70
2023-02-22T01:42:30.430Z,5.84
2023-02-22T01:45:52.700Z,5.90
2023-02-22T01:48:31.030Z,5.81
2023-02-22T01:51:10.802Z,5.68
2023-02-22T01:53:50.703Z,5.48
2023-02-22T01:56:26.392Z,5.70
2023-02-22T01:59:06.918Z,5.51
2023-02-22T02:01:42.991Z,5.68
2023-02-22T02:04:20.716Z,5.63
2023-02-22T02:06:55.665Z,5.72
2023-02-22T02:09:37.675Z,5.50
2023-02-22T02:12:18.535Z,5.68
2023-02-22T02:14:53.806Z,5.79
2023-02-22T02:17:27.246Z,5.75
2023-02-22T02:20:08.376Z,5.32
2023-02-22T02:22:51.526Z,5.68
2023-02-22T02:26:09.178Z,5.76
2023-02-22T02:29:17.227Z,5.92
2023-02-22T02:32:18.909Z,5.69
2023-02-22T02:34:59.657Z,5.48
2023-02-22T02:37:37.796Z,5.92
2023-02-22T02:40:21.072Z,5.63
2023-02-22T02:43:01.357Z,5.50
2023-02-22T02:45:42.183Z,5.77
2023-02-22T02:48:22.197Z,5.93
2023-02-22T02:50:59.766Z,5.88
2023-02-22T02:53:37.678Z,5.92
2023-02-22T02:56:10.918Z,5.43
2023-02-22T02:58:49.133Z,5.71
2023-02-22T03:01:38.863Z,5.81
2023-02-22T03:04:31.022Z,5.60
2023-02-22T03:07:22.340Z,5.87
2023-02-22T03:10:08.288Z,5.83
2023-02-22T03:12:50.067Z,5.79
2023-02-22T03:15:32.561Z,5.66
2023-02-22T03:18:10.607Z,5.67
2023-02-22T03:20:51.350Z,5.38
2023-02-22T03:23:29.845Z,5.05
2023-02-22T03:26:06.607Z,5.50
2023-02-22T03:28:44.147Z,5.40
2023-02-22T03:31:22.912Z,5.59
2023-02-22T03:33:59.172Z,5.66
2023-02-22T03:36:39.072Z,5.57
2023-02-22T03:39:17.175Z,5.50
2023-02-22T03:41:52.607Z,5.38
2023-02-22T03:44:30.300Z,5.11
2023-02-22T03:47:08.947Z,5.24
2023-02-22T03:49:48.450Z,5.26
2023-02-22T03:52:23.522Z,5.31
2023-02-22T03:54:57.215Z,5.09
2023-02-22T03:57:34.889Z,5.13
2023-02-22T04:00:14.813Z,5.17
2023-02-22T04:02:48.191Z,5.32
2023-02-22T04:05:22.050Z,5.45
2023-02-22T04:07:57.563Z,5.39
2023-02-22T04:10:31.795Z,4.97
2023-02-22T04:13:07.133Z,4.96
2023-02-22T04:15:40.926Z,5.06
2023-02-22T04:18:14.126Z,5.05
2023-02-22T04:20:47.418Z,5.05
2023-02-22T04:23:22.124Z,4.93
2023-02-22T04:25:55.661Z,4.75
2023-02-22T04:28:29.342Z,4.80
2023-02-22T04:31:02.819Z,4.51
2023-02-22T04:33:36.569Z,4.25
2023-02-22T04:36:10.974Z,4.11
2023-02-22T04:38:45.705Z,4.45
2023-02-22T04:41:19.587Z,4.51
2023-02-22T04:43:53.289Z,4.44
2023-02-22T04:46:26.730Z,4.74
2023-02-22T04:49:00.053Z,4.61
2023-02-22T04:51:33.754Z,4.58
2023-02-22T04:54:08.477Z,4.68
2023-02-22T04:56:41.778Z,4.50
2023-02-22T04:59:15.401Z,4.40
2023-02-22T05:01:48.928Z,4.28
2023-02-22T05:04:22.822Z,4.60
2023-02-22T05:06:56.132Z,4.95
2023-02-22T05:09:30.745Z,4.98
2023-02-22T05:12:10.270Z,4.98
2023-02-22T05:14:44.581Z,5.29
2023-02-22T05:17:18.020Z,5.30
2023-02-22T05:19:51.445Z,5.35
2023-02-22T05:22:24.885Z,5.54
2023-02-22T05:24:59.750Z,5.63
2023-02-22T05:27:33.570Z,5.38
2023-02-22T05:30:09.287Z,5.21
2023-02-22T05:32:42.535Z,5.39
2023-02-22T05:35:15.973Z,5.44
2023-02-22T05:37:50.769Z,5.47
2023-02-22T05:40:27.497Z,5.53
2023-02-22T05:43:02.240Z,5.53
2023-02-22T05:45:36.192Z,5.36
2023-02-22T05:48:09.962Z,5.47
2023-02-22T05:50:43.962Z,5.57
2023-02-22T05:53:17.300Z,5.60
2023-02-22T05:55:52.006Z,5.63
2023-02-22T05:58:25.691Z,5.52
2023-02-22T06:01:00.146Z,5.66
2023-02-22T06:03:34.261Z,5.73
2023-02-22T06:06:07.975Z,5.77
2023-02-22T06:08:41.253Z,5.79
2023-02-22T06:11:16.385Z,5.73
2023-02-22T06:13:52.690Z,5.62
2023-02-22T06:16:26.104Z,5.93
2023-02-22T06:18:59.899Z,5.96
2023-02-22T06:21:33.302Z,5.97
2023-02-22T06:24:07.219Z,6.16
2023-02-22T06:26:41.699Z,6.22
2023-02-22T06:29:15.193Z,6.42
2023-02-22T06:31:48.951Z,6.24
2023-02-22T06:34:23.389Z,6.63
2023-02-22T06:36:57.600Z,6.75
2023-02-22T06:39:32.496Z,6.82
2023-02-22T06:42:07.432Z,6.75
2023-02-22T06:44:41.243Z,6.73
2023-02-22T06:47:14.643Z,6.57
2023-02-22T06:49:54.025Z,6.91
2023-02-22T06:52:27.285Z,7.10
2023-02-22T06:55:00.562Z,7.17
2023-02-22T06:57:35.501Z,7.29
2023-02-22T07:00:10.457Z,7.39
2023-02-22T07:02:44.184Z,7.64
2023-02-22T07:05:19.998Z,7.77
2023-02-22T07:07:55.078Z,7.89
2023-02-22T07:10:30.554Z,7.98
2023-02-22T07:13:08.947Z,8.18
2023-02-22T07:15:42.688Z,8.34
2023-02-22T07:18:16.713Z,8.47
2023-02-22T07:20:49.802Z,8.62
2023-02-22T07:23:24.290Z,8.76
2023-02-22T07:26:00.614Z,8.84
2023-02-22T07:28:35.220Z,8.64
2023-02-22T07:31:08.616Z,9.02
2023-02-22T07:33:42.149Z,9.09
2023-02-22T07:36:18.014Z,9.12
2023-02-22T07:38:51.676Z,9.17
2023-02-22T07:41:25.289Z,9.22
2023-02-22T07:44:00.111Z,9.26
2023-02-22T07:46:33.979Z,9.35
2023-02-22T07:49:07.180Z,9.46
2023-02-22T07:51:40.699Z,9.61
2023-02-22T07:54:14.460Z,9.73
2023-02-22T07:56:49.370Z,9.81
2023-02-22T07:59:24.080Z,9.48
2023-02-22T08:01:57.424Z,10.13
2023-02-22T08:04:30.780Z,10.29
2023-02-22T08:07:04.136Z,10.51
2023-02-22T08:09:37.755Z,10.43
2023-02-22T08:12:12.620Z,10.89
2023-02-22T08:14:47.861Z,11.09
2023-02-22T08:17:21.528Z,11.31
2023-02-22T08:19:55.117Z,11.26
2023-02-22T08:22:29.166Z,11.23
2023-02-22T08:25:02.610Z,11.22
2023-02-22T08:27:36.445Z,11.29
2023-02-22T08:30:15.805Z,11.33
2023-02-22T08:32:49.786Z,11.58
2023-02-22T08:35:23.153Z,11.69
2023-02-22T08:37:59.728Z,11.96
2023-02-22T08:40:35.705Z,11.99
2023-02-22T08:43:09.133Z,12.02
2023-02-22T08:45:45.783Z,12.32
2023-02-22T08:48:20.838Z,12.47
2023-02-22T08:50:55.017Z,12.57
2023-02-22T08:53:28.870Z,12.75
2023-02-22T08:56:02.348Z,13.01
2023-02-22T08:58:35.568Z,13.01
2023-02-22T09:01:10.462Z,13.28
2023-02-22T09:03:43.904Z,13.55
2023-02-22T09:06:17.469Z,13.62
2023-02-22T09:08:50.982Z,13.86
2023-02-22T09:11:24.658Z,13.99
2023-02-22T09:13:58.474Z,14.03
2023-02-22T09:16:33.650Z,14.16
2023-02-22T09:19:07.092Z,14.16
2023-02-22T09:21:41.346Z,14.26
2023-02-22T09:24:14.882Z,14.50
2023-02-22T09:26:53.509Z,14.53
2023-02-22T09:29:28.773Z,14.63
2023-02-22T09:32:04.482Z,14.63
2023-02-22T09:34:38.185Z,14.66
2023-02-22T09:37:11.514Z,14.81
2023-02-22T09:39:45.048Z,14.73
2023-02-22T09:42:27.730Z,15.07
2023-02-22T09:45:12.862Z,14.93
2023-02-22T09:47:56.575Z,14.95
2023-02-22T09:50:35.696Z,15.10
2023-02-22T09:53:22.248Z,15.05
2023-02-22T09:55:57.976Z,15.11
2023-02-22T09:58:34.994Z,15.29
2023-02-22T10:01:19.936Z,15.51
2023-02-22T10:04:02.491Z,15.40
2023-02-22T10:06:37.526Z,15.26
2023-02-22T10:09:12.403Z,15.55
2023-02-22T10:11:53.541Z,15.92
2023-02-22T10:14:45.152Z,15.92
2023-02-22T10:17:30.438Z,15.86
2023-02-22T10:20:24.198Z,15.74
2023-02-22T10:23:12.157Z,16.15
2023-02-22T10:25:47.244Z,16.05
2023-02-22T10:28:24.982Z,16.04
2023-02-22T10:31:03.234Z,16.15
2023-02-22T10:33:41.897Z,16.04
2023-02-22T10:36:20.442Z,16.22
2023-02-22T10:38:56.803Z,16.25
2023-02-22T10:41:33.127Z,16.09
2023-02-22T10:44:06.570Z,16.16
2023-02-22T10:46:42.166Z,16.42
2023-02-22T10:49:22.533Z,16.46
2023-02-22T10:52:02.784Z,16.51
2023-02-22T10:54:42.165Z,16.56
2023-02-22T10:57:15.937Z,16.45
2023-02-22T10:59:49.234Z,16.29
2023-02-22T11:02:26.109Z,16.33
2023-02-22T11:05:02.440Z,16.21
2023-02-22T11:07:38.221Z,16.59
2023-02-22T11:10:11.737Z,16.71
2023-02-22T11:12:48.659Z,16.67
2023-02-22T11:15:31.358Z,16.61
2023-02-22T11:18:04.803Z,16.60
2023-02-22T11:20:40.864Z,16.67
2023-02-22T11:23:23.619Z,16.62
2023-02-22T11:26:08.535Z,16.70
2023-02-22T11:28:49.484Z,16.66
2023-02-22T11:31:25.601Z,16.62
2023-02-22T11:34:01.535Z,16.57
2023-02-22T11:36:40.845Z,16.68
2023-02-22T11:39:26.023Z,16.82
2023-02-22T11:42:00.132Z,17.01
2023-02-22T11:44:34.453Z,17.11
2023-02-22T11:47:13.306Z,17.13
2023-02-22T11:49:47.457Z,17.02
2023-02-22T11:52:28.490Z,17.11
2023-02-22T11:55:32.649Z,17.02
2023-02-22T11:58:31.153Z,17.11
2023-02-22T12:01:12.389Z,17.00
2023-02-22T12:04:25.052Z,16.93
2023-02-22T12:07:15.904Z,16.71
2023-02-22T12:09:56.084Z,16.70
2023-02-22T12:12:45.316Z,16.82
2023-02-22T12:15:29.776Z,16.85
2023-02-22T12:18:09.913Z,17.16
2023-02-22T12:20:47.990Z,17.03
2023-02-22T12:23:30.181Z,16.76
2023-02-22T12:26:11.878Z,16.94
2023-02-22T12:28:52.641Z,16.70
2023-02-22T12:31:33.938Z,16.64
2023-02-22T12:34:13.978Z,16.72
2023-02-22T12:36:51.323Z,16.50
2023-02-22T12:39:47.140Z,16.47
2023-02-22T12:42:32.048Z,16.70
2023-02-22T12:45:16.911Z,16.67
2023-02-22T12:47:59.005Z,16.50
2023-02-22T12:50:34.621Z,16.35
2023-02-22T12:53:19.526Z,16.33
2023-02-22T12:55:57.240Z,16.47
2023-02-22T12:58:37.489Z,16.19
2023-02-22T13:01:20.322Z,16.57
2023-02-22T13:03:56.934Z,16.46
2023-02-22T13:06:41.803Z,16.64
2023-02-22T13:09:38.647Z,16.62
2023-02-22T13:12:18.529Z,16.84
2023-02-22T13:15:03.975Z,16.76
2023-02-22T13:17:48.763Z,16.97
2023-02-22T13:20:27.984Z,16.94
2023-02-22T13:23:06.124Z,16.81
2023-02-22T13:25:45.314Z,16.84
2023-02-22T13:28:29.565Z,16.97
2023-02-22T13:31:16.997Z,16.82
2023-02-22T13:34:13.146Z,16.41
2023-02-22T13:37:02.552Z,16.77
2023-02-22T13:39:54.774Z,16.64
2023-02-22T13:42:54.912Z,16.94
2023-02-22T13:45:45.499Z,16.80
2023-02-22T13:48:41.432Z,16.74
2023-02-22T13:51:31.707Z,16.68
2023-02-22T13:54:09.134Z,16.57
2023-02-22T13:56:43.938Z,16.58
2023-02-22T13:59:27.400Z,16.42
2023-02-22T14:02:04.364Z,16.28
2023-02-22T14:04:44.179Z,16.36
2023-02-22T14:07:57.073Z,16.06
2023-02-22T14:10:45.367Z,16.24
2023-02-22T14:13:20.148Z,16.49
2023-02-22T14:16:18.668Z,16.45
2023-02-22T14:19:06.432Z,16.43
2023-02-22T14:21:57.333Z,16.33
2023-02-22T14:24:42.772Z,16.28
2023-02-22T14:27:18.481Z,16.11
2023-02-22T14:29:55.315Z,15.97
2023-02-22T14:32:33.501Z,15.81
2023-02-22T14:35:17.169Z,15.67
2023-02-22T14:38:00.863Z,15.79
2023-02-22T14:40:37.768Z,15.71
2023-02-22T14:43:19.936Z,15.83
2023-02-22T14:45:55.586Z,15.97
2023-02-22T14:48:39.424Z,15.89
2023-02-22T14:51:21.857Z,15.94
2023-02-22T14:54:03.510Z,15.87
2023-02-22T14:56:44.335Z,15.76
2023-02-22T14:59:24.198Z,15.78
2023-02-22T15:02:11.833Z,15.70
2023-02-22T15:04:52.708Z,15.68
2023-02-22T15:07:28.374Z,15.73
2023-02-22T15:10:27.852Z,15.39
2023-02-22T15:13:13.521Z,15.57
2023-02-22T15:15:49.993Z,15.60
2023-02-22T15:18:29.417Z,15.61
2023-02-22T15:21:07.863Z,15.45
2023-02-22T15:23:44.798Z,15.36
2023-02-22T15:26:21.617Z,15.22
2023-02-22T15:28:56.451Z,15.11
2023-02-22T15:31:33.972Z,15.11
2023-02-22T15:34:24.354Z,15.03
2023-02-22T15:37:06.516Z,14.94
2023-02-22T15:39:44.030Z,14.94
2023-02-22T15:42:21.127Z,14.81
2023-02-22T15:44:55.789Z,14.74
2023-02-22T15:47:32.277Z,14.37
2023-02-22T15:50:16.594Z,14.57
2023-02-22T15:52:54.327Z,14.50
2023-02-22T15:55:30.650Z,14.42
2023-02-22T15:58:13.053Z,14.39
2023-02-22T16:00:50.526Z,14.25
2023-02-22T16:03:28.824Z,14.24
2023-02-22T16:06:02.719Z,14.20
2023-02-22T16:08:54.293Z,14.18
2023-02-22T16:11:32.059Z,14.09
2023-02-22T16:14:08.202Z,14.06
2023-02-22T16:16:43.322Z,14.04
2023-02-22T16:19:31.337Z,13.90
2023-02-22T16:22:13.462Z,13.91
2023-02-22T16:24:52.179Z,13.92
2023-02-22T16:27:25.798Z,13.97
2023-02-22T16:30:23.343Z,13.86
2023-02-22T16:32:58.315Z,13.72
2023-02-22T16:35:35.583Z,13.69
2023-02-22T16:38:17.009Z,13.72
2023-02-22T16:40:54.978Z,13.64
2023-02-22T16:43:32.745Z,13.58
2023-02-22T16:46:07.916Z,13.52
2023-02-22T16:48:43.859Z,13.46
2023-02-22T16:51:24.064Z,13.30
2023-02-22T16:53:58.083Z,13.36
2023-02-22T16:56:32.448Z,13.33
2023-02-22T16:59:10.971Z,13.32
2023-02-22T17:01:44.451Z,13.33
2023-02-22T17:04:19.990Z,13.31
2023-02-22T17:06:54.800Z,13.30
2023-02-22T17:09:28.117Z,13.27
2023-02-22T17:12:03.652Z,13.03
2023-02-22T17:14:37.817Z,13.21
2023-02-22T17:17:13.136Z,13.21
2023-02-22T17:19:47.863Z,13.16
2023-02-22T17:22:23.927Z,13.06
2023-02-22T17:24:57.144Z,13.13
2023-02-22T17:27:30.791Z,13.18
2023-02-22T17:30:04.850Z,13.10
2023-02-22T17:32:38.276Z,13.05
2023-02-22T17:35:11.916Z,12.94
2023-02-22T17:37:47.525Z,12.89
2023-02-22T17:40:20.742Z,12.84
2023-02-22T17:42:55.366Z,12.78
2023-02-22T17:45:29.479Z,12.70
2023-02-22T17:48:02.890Z,12.68
2023-02-22T17:50:38.196Z,12.67
2023-02-22T17:53:14.082Z,12.33
2023-02-22T17:55:47.255Z,12.53
2023-02-22T17:58:20.525Z,12.44
2023-02-22T18:00:59.231Z,12.41
2023-02-22T18:03:33.495Z,12.34
2023-02-22T18:06:08.538Z,12.02
2023-02-22T18:08:43.229Z,12.28
2023-02-22T18:11:16.810Z,12.30
2023-02-22T18:13:50.232Z,12.29
2023-02-22T18:16:25.557Z,12.22
2023-02-22T18:19:01.562Z,12.01
2023-02-22T18:21:35.239Z,12.12
2023-02-22T18:24:10.171Z,12.09
2023-02-22T18:26:43.460Z,12.02
2023-02-22T18:29:17.016Z,12.01
2023-02-22T18:31:50.257Z,11.96
2023-02-22T18:34:25.050Z,11.94
2023-02-22T18:36:58.691Z,11.89
2023-02-22T18:39:40.672Z,11.77
2023-02-22T18:42:15.103Z,11.76
2023-02-22T18:44:48.484Z,11.70
2023-02-22T18:47:22.818Z,11.65
2023-02-22T18:49:56.903Z,11.57
2023-02-22T18:52:31.250Z,11.60
2023-02-22T18:55:08.828Z,11.56
2023-02-22T18:57:43.099Z,11.54
2023-02-22T19:00:19.953Z,11.46
2023-02-22T19:02:53.733Z,11.47
2023-02-22T19:05:27.653Z,11.44
2023-02-22T19:08:01.998Z,11.45
2023-02-22T19:10:36.700Z,11.39
2023-02-22T19:13:10.845Z,11.32
2023-02-22T19:15:44.804Z,11.35
2023-02-22T19:18:18.284Z,11.33
2023-02-22T19:20:57.154Z,11.27
2023-02-22T19:23:34.475Z,11.20
2023-02-22T19:26:10.372Z,11.14
2023-02-22T19:28:43.557Z,11.14
2023-02-22T19:31:18.714Z,11.09
2023-02-22T19:33:53.351Z,11.19
2023-02-22T19:36:26.887Z,11.17
2023-02-22T19:39:02.025Z,11.18
2023-02-22T19:41:37.097Z,11.18
2023-02-22T19:44:10.640Z,11.12
2023-02-22T19:46:44.477Z,11.16
2023-02-22T19:49:18.785Z,11.00
2023-02-22T19:51:52.697Z,11.02
2023-02-22T19:54:25.966Z,10.95
2023-02-22T19:57:01.077Z,10.98
2023-02-22T19:59:34.819Z,11.04
2023-02-22T20:02:12.202Z,11.00
2023-02-22T20:04:50.096Z,10.86
2023-02-22T20:07:23.822Z,10.75
2023-02-22T20:09:57.364Z,10.79
2023-02-22T20:12:32.761Z,10.78
2023-02-22T20:15:07.097Z,10.52
2023-02-22T20:17:41.649Z,10.66
2023-02-22T20:20:15.318Z,10.73
2023-02-22T20:22:50.625Z,10.53
2023-02-22T20:25:24.122Z,10.56
2023-02-22T20:28:00.784Z,10.60
2023-02-22T20:30:34.135Z,10.56
2023-02-22T20:33:10.354Z,10.39
2023-02-22T20:35:43.632Z,10.47
2023-02-22T20:38:19.295Z,10.25
2023-02-22T20:40:52.588Z,10.26
2023-02-22T20:43:27.288Z,10.21
2023-02-22T20:46:02.700Z,10.15
2023-02-22T20:48:36.428Z,10.21
2023-02-22T20:51:11.061Z,9.94
2023-02-22T20:53:45.135Z,10.03
2023-02-22T20:56:20.849Z,9.89
2023-02-22T20:58:56.988Z,9.94
2023-02-22T21:01:31.161Z,9.85
2023-02-22T21:04:06.307Z,9.69
2023-02-22T21:06:41.394Z,9.65
2023-02-22T21:09:18.195Z,9.65
2023-02-22T21:11:52.554Z,9.56
2023-02-22T21:14:28.405Z,9.36
2023-02-22T21:17:04.577Z,9.36
2023-02-22T21:19:38.237Z,9.34
2023-02-22T21:22:11.712Z,9.47
2023-02-22T21:24:44.978Z,9.44
2023-02-22T21:27:18.531Z,9.38
2023-02-22T21:29:53.247Z,9.19
2023-02-22T21:32:26.658Z,9.15
2023-02-22T21:35:00.396Z,8.99
2023-02-22T21:37:34.544Z,9.04
2023-02-22T21:40:12.121Z,9.09
2023-02-22T21:42:49.096Z,8.99
2023-02-22T21:45:24.179Z,8.84
2023-02-22T21:47:57.372Z,8.91
2023-02-22T21:50:30.879Z,8.47
2023-02-22T21:53:05.565Z,8.65
2023-02-22T21:55:39.090Z,8.78
2023-02-22T21:58:12.573Z,8.83
2023-02-22T22:00:47.456Z,8.81
2023-02-22T22:03:21.521Z,8.62
2023-02-22T22:05:54.530Z,8.55
2023-02-22T22:08:28.969Z,8.76
2023-02-22T22:11:02.917Z,8.78
2023-02-22T22:13:39.249Z,8.39
2023-02-22T22:16:16.476Z,8.47
2023-02-22T22:18:50.342Z,8.44
2023-02-22T22:21:25.202Z,8.30
2023-02-22T22:23:58.475Z,8.41
2023-02-22T22:26:33.878Z,8.33
2023-02-22T22:29:10.271Z,8.12
2023-02-22T22:31:44.902Z,8.26
2023-02-22T22:34:19.583Z,8.04
2023-02-22T22:36:53.314Z,8.12
2023-02-22T22:39:27.050Z,8.07
2023-02-22T22:42:00.346Z,8.10
2023-02-22T22:44:41.970Z,8.02
2023-02-22T22:47:17.673Z,8.13
2023-02-22T22:49:50.959Z,8.11
2023-02-22T22:52:24.465Z,7.90
2023-02-22T22:55:00.700Z,7.85
2023-02-22T22:57:34.206Z,7.79
2023-02-22T23:00:31.174Z,7.73
2023-02-22T23:03:06.965Z,7.85
2023-02-22T23:05:42.357Z,7.67
2023-02-22T23:08:15.713Z,7.38
2023-02-22T23:10:49.000Z,7.39
2023-02-22T23:13:22.615Z,7.27
2023-02-22T23:15:56.420Z,7.22
2023-02-22T23:18:33.987Z,7.06
2023-02-22T23:21:07.317Z,7.02
2023-02-22T23:23:41.215Z,7.00
2023-02-22T23:26:18.264Z,6.80
2023-02-22T23:28:52.500Z,6.64
2023-02-22T23:31:29.411Z,6.63
2023-02-22T23:34:11.017Z,6.78
2023-02-22T23:36:45.306Z,6.78
2023-02-22T23:39:21.496Z,6.78
2023-02-22T23:41:59.233Z,6.68
2023-02-22T23:44:33.050Z,6.41
2023-02-22T23:47:06.409Z,6.61
2023-02-22T23:49:43.469Z,6.51
2023-02-22T23:52:24.107Z,6.44
2023-02-22T23:54:58.296Z,6.33
2023-02-22T23:57:32.780Z,6.19
